createdAt,value
2023-02-28T00:00:02.168Z,0.00
2023-02-28T00:01:02.159Z,0.00
2023-02-28T00:02:02.181Z,0.00
2023-02-28T00:03:02.185Z,0.00
2023-02-28T00:04:02.143Z,0.00
2023-02-28T00:05:02.168Z,0.00
2023-02-28T00:06:02.120Z,0.00
2023-02-28T00:07:01.436Z,0.00
2023-02-28T00:08:02.090Z,0.00
2023-02-28T00:09:02.064Z,0.00
2023-02-28T00:10:01.421Z,0.00
2023-02-28T00:11:01.378Z,0.00
2023-02-28T00:12:02.052Z,0.00
2023-02-28T00:13:02.052Z,0.00
2023-02-28T00:14:02.015Z,0.00
2023-02-28T00:15:02.019Z,0.00
2023-02-28T00:16:01.380Z,0.00
2023-02-28T00:17:02.020Z,0.00
2023-02-28T00:18:02.011Z,0.00
2023-02-28T00:19:01.956Z,0.00
2023-02-28T00:20:01.963Z,0.00
2023-02-28T00:21:01.275Z,0.00
2023-02-28T00:22:01.943Z,0.00
2023-02-28T00:23:01.943Z,0.00
2023-02-28T00:24:01.905Z,0.00
2023-02-28T00:25:01.238Z,0.00
2023-02-28T00:26:01.215Z,0.00
2023-02-28T00:27:01.902Z,0.00
2023-02-28T00:28:01.897Z,0.00
2023-02-28T00:29:01.872Z,0.00
2023-02-28T00:30:01.875Z,0.00
2023-02-28T00:31:01.877Z,0.00
2023-02-28T00:32:01.228Z,0.00
2023-02-28T00:33:01.144Z,0.00
2023-02-28T00:34:01.165Z,0.00
2023-02-28T00:35:01.828Z,0.00
2023-02-28T00:36:01.140Z,0.00
2023-02-28T00:37:01.785Z,0.00
2023-02-28T00:38:01.086Z,0.00
2023-02-28T00:39:01.095Z,0.00
2023-02-28T00:40:01.762Z,0.00
2023-02-28T00:41:01.746Z,0.00
2023-02-28T00:42:01.744Z,0.00
2023-02-28T00:43:01.035Z,0.00
2023-02-28T00:44:01.704Z,0.00
2023-02-28T00:45:01.015Z,0.00
2023-02-28T00:46:01.027Z,0.00
2023-02-28T00:47:01.687Z,0.00
2023-02-28T00:48:01.674Z,0.00
2023-02-28T00:49:01.644Z,0.00
2023-02-28T00:50:01.655Z,0.00
2023-02-28T00:51:01.659Z,0.00
2023-02-28T00:52:00.958Z,0.00
2023-02-28T00:53:02.884Z,0.00
2023-02-28T00:54:00.936Z,0.00
2023-02-28T00:55:01.610Z,0.00
2023-02-28T00:56:00.906Z,0.00
2023-02-28T00:57:01.582Z,0.00
2023-02-28T00:58:01.568Z,0.00
2023-02-28T00:59:01.537Z,0.00
2023-02-28T01:00:01.534Z,0.00
2023-02-28T01:01:01.535Z,0.00
2023-02-28T01:02:01.526Z,0.00
2023-02-28T01:03:00.836Z,0.00
2023-02-28T01:04:01.511Z,0.00
2023-02-28T01:05:01.478Z,0.00
2023-02-28T01:06:01.505Z,0.00
2023-02-28T01:07:01.479Z,0.00
2023-02-28T01:08:01.470Z,0.00
2023-02-28T01:09:01.458Z,0.00
2023-02-28T01:10:00.794Z,0.00
2023-02-28T01:11:01.442Z,0.00
2023-02-28T01:12:01.431Z,0.00
2023-02-28T01:13:01.421Z,0.00
2023-02-28T01:14:01.417Z,0.00
2023-02-28T01:15:00.738Z,0.00
2023-02-28T01:16:00.779Z,0.00
2023-02-28T01:17:01.390Z,0.00
2023-02-28T01:18:01.378Z,0.00
2023-02-28T01:19:01.360Z,0.00
2023-02-28T01:20:00.747Z,0.00
2023-02-28T01:21:00.655Z,0.00
2023-02-28T01:22:00.640Z,0.00
2023-02-28T01:23:01.327Z,0.00
2023-02-28T01:24:00.613Z,0.00
2023-02-28T01:25:01.284Z,0.00
2023-02-28T01:26:01.288Z,0.00
2023-02-28T01:27:00.583Z,0.00
2023-02-28T01:28:01.270Z,0.00
2023-02-28T01:29:01.251Z,0.00
2023-02-28T01:30:01.237Z,0.00
2023-02-28T01:31:01.277Z,0.00
2023-02-28T01:32:01.275Z,0.00
2023-02-28T01:33:01.227Z,0.00
2023-02-28T01:34:01.212Z,0.00
2023-02-28T01:35:00.517Z,0.00
2023-02-28T01:36:00.517Z,0.00
2023-02-28T01:37:01.172Z,0.00
2023-02-28T01:38:12.346Z,0.00
2023-02-28T01:39:03.393Z,0.00
2023-02-28T01:40:00.474Z,0.00
2023-02-28T01:41:01.130Z,0.00
2023-02-28T01:42:01.128Z,0.00
2023-02-28T01:43:01.158Z,0.00
2023-02-28T01:44:01.102Z,0.00
2023-02-28T01:45:01.124Z,0.00
2023-02-28T01:46:01.107Z,0.00
2023-02-28T01:47:01.069Z,0.00
2023-02-28T01:48:01.050Z,0.00
2023-02-28T01:49:00.356Z,0.00
2023-02-28T01:50:01.010Z,0.00
2023-02-28T01:51:00.329Z,0.00
2023-02-28T01:52:01.010Z,0.00
2023-02-28T01:53:02.265Z,0.00
2023-02-28T01:54:01.008Z,0.00
2023-02-28T01:55:00.968Z,0.00
2023-02-28T01:56:00.969Z,0.00
2023-02-28T01:57:02.217Z,0.00
2023-02-28T01:58:00.950Z,0.00
2023-02-28T01:59:00.939Z,0.00
2023-02-28T02:00:00.921Z,0.00
2023-02-28T02:01:00.219Z,0.00
2023-02-28T02:02:00.236Z,0.00
2023-02-28T02:03:00.946Z,0.00
2023-02-28T02:04:00.237Z,0.00
2023-02-28T02:05:00.859Z,0.00
2023-02-28T02:06:00.868Z,0.00
2023-02-28T02:07:00.855Z,0.00
2023-02-28T02:08:00.156Z,0.00
2023-02-28T02:09:00.160Z,0.00
2023-02-28T02:10:00.172Z,0.00
2023-02-28T02:11:00.812Z,0.00
2023-02-28T02:12:00.809Z,0.00
2023-02-28T02:13:00.801Z,0.00
2023-02-28T02:14:00.115Z,0.00
2023-02-28T02:15:00.210Z,0.00
2023-02-28T02:16:00.094Z,0.00
2023-02-28T02:17:00.749Z,0.00
2023-02-28T02:18:00.758Z,0.00
2023-02-28T02:19:00.738Z,0.00
2023-02-28T02:20:00.701Z,0.00
2023-02-28T02:21:00.710Z,0.00
2023-02-28T02:22:00.707Z,0.00
2023-02-28T02:23:00.693Z,0.00
2023-02-28T02:24:00.690Z,0.00
2023-02-28T02:25:00.662Z,0.00
2023-02-28T02:26:00.662Z,0.00
2023-02-28T02:26:59.975Z,0.00
2023-02-28T02:27:59.978Z,0.00
2023-02-28T02:29:00.638Z,0.00
2023-02-28T02:30:00.609Z,0.00
2023-02-28T02:30:59.919Z,0.00
2023-02-28T02:31:59.927Z,0.00
2023-02-28T02:32:59.901Z,0.00
2023-02-28T02:34:00.588Z,0.00
2023-02-28T02:35:00.568Z,0.00
2023-02-28T02:36:00.575Z,0.00
2023-02-28T02:37:00.543Z,0.00
2023-02-28T02:37:59.839Z,0.00
2023-02-28T02:38:59.844Z,0.00
2023-02-28T02:40:00.528Z,0.00
2023-02-28T02:41:00.483Z,0.00
2023-02-28T02:41:59.801Z,0.00
2023-02-28T02:43:00.483Z,0.00
2023-02-28T02:43:59.774Z,0.00
2023-02-28T02:44:59.773Z,0.00
2023-02-28T02:45:59.784Z,0.00
2023-02-28T02:47:00.442Z,0.00
2023-02-28T02:48:00.444Z,0.00
2023-02-28T02:49:00.422Z,0.00
2023-02-28T02:49:59.713Z,0.00
2023-02-28T02:50:59.735Z,0.00
2023-02-28T02:52:00.396Z,0.00
2023-02-28T02:53:00.377Z,0.00
2023-02-28T02:54:00.372Z,0.00
2023-02-28T02:55:00.354Z,0.00
2023-02-28T02:56:00.333Z,0.00
2023-02-28T02:56:59.667Z,0.00
2023-02-28T02:58:00.333Z,0.00
2023-02-28T02:59:00.318Z,0.00
2023-02-28T03:00:00.305Z,0.00
2023-02-28T03:01:00.337Z,0.00
2023-02-28T03:01:59.595Z,0.00
2023-02-28T03:02:59.595Z,0.00
2023-02-28T03:04:00.318Z,0.00
2023-02-28T03:04:59.577Z,0.00
2023-02-28T03:06:00.228Z,0.00
2023-02-28T03:07:00.235Z,0.00
2023-02-28T03:08:00.227Z,0.00
2023-02-28T03:09:00.216Z,0.00
2023-02-28T03:10:00.205Z,0.00
2023-02-28T03:11:00.176Z,0.00
2023-02-28T03:12:00.187Z,0.00
2023-02-28T03:12:59.504Z,0.00
2023-02-28T03:14:00.165Z,0.00
2023-02-28T03:15:00.152Z,0.00
2023-02-28T03:15:59.489Z,0.00
2023-02-28T03:17:00.140Z,0.00
2023-02-28T03:18:00.119Z,0.00
2023-02-28T03:19:00.111Z,0.00
2023-02-28T03:20:00.152Z,0.00
2023-02-28T03:20:59.419Z,0.00
2023-02-28T03:22:00.118Z,0.00
2023-02-28T03:23:00.121Z,0.00
2023-02-28T03:24:00.081Z,0.00
2023-02-28T03:25:00.055Z,0.00
2023-02-28T03:26:00.025Z,0.00
2023-02-28T03:27:00.034Z,0.00
2023-02-28T03:27:59.332Z,0.00
2023-02-28T03:29:00.014Z,0.00
2023-02-28T03:29:59.995Z,0.00
2023-02-28T03:30:59.985Z,0.00
2023-02-28T03:31:59.387Z,0.00
2023-02-28T03:32:59.966Z,0.00
2023-02-28T03:33:59.958Z,0.00
2023-02-28T03:34:59.943Z,0.00
2023-02-28T03:35:59.936Z,0.00
2023-02-28T03:36:59.936Z,0.00
2023-02-28T03:37:59.224Z,0.00
2023-02-28T03:38:59.235Z,0.00
2023-02-28T03:39:59.894Z,0.00
2023-02-28T03:40:59.218Z,0.00
2023-02-28T03:41:59.869Z,0.00
2023-02-28T03:43:01.121Z,0.00
2023-02-28T03:43:59.158Z,0.00
2023-02-28T03:44:59.167Z,0.00
2023-02-28T03:45:59.238Z,0.00
2023-02-28T03:46:59.818Z,0.00
2023-02-28T03:47:59.806Z,0.00
2023-02-28T03:48:59.809Z,0.00
2023-02-28T03:49:59.796Z,0.00
2023-02-28T03:50:59.111Z,0.00
2023-02-28T03:51:59.776Z,0.00
2023-02-28T03:53:01.001Z,0.00
2023-02-28T03:53:59.749Z,0.00
2023-02-28T03:54:59.736Z,0.00
2023-02-28T03:55:59.706Z,0.00
2023-02-28T03:56:59.718Z,0.00
2023-02-28T03:57:59.712Z,0.00
2023-02-28T03:58:59.009Z,0.00
2023-02-28T03:59:59.677Z,0.00
2023-02-28T04:00:59.654Z,0.00
2023-02-28T04:01:59.120Z,0.00
2023-02-28T04:02:58.979Z,0.00
2023-02-28T04:03:59.652Z,0.00
2023-02-28T04:04:59.629Z,0.00
2023-02-28T04:05:59.629Z,0.00
2023-02-28T04:06:59.616Z,0.00
2023-02-28T04:07:58.914Z,0.00
2023-02-28T04:08:59.590Z,0.00
2023-02-28T04:09:59.588Z,0.00
2023-02-28T04:10:59.566Z,0.00
2023-02-28T04:11:58.886Z,0.00
2023-02-28T04:12:59.551Z,0.00
2023-02-28T04:13:58.865Z,0.00
2023-02-28T04:14:59.517Z,0.00
2023-02-28T04:15:59.554Z,0.00
2023-02-28T04:16:58.826Z,0.00
2023-02-28T04:17:59.490Z,0.00
2023-02-28T04:18:59.486Z,0.00
2023-02-28T04:20:05.569Z,0.00
2023-02-28T04:20:58.770Z,0.00
2023-02-28T04:21:59.431Z,0.00
2023-02-28T04:22:59.437Z,0.00
2023-02-28T04:23:58.750Z,0.00
2023-02-28T04:24:58.728Z,0.00
2023-02-28T04:25:58.740Z,0.00
2023-02-28T04:26:58.733Z,0.00
2023-02-28T04:27:59.390Z,0.00
2023-02-28T04:28:59.373Z,0.00
2023-02-28T04:29:59.388Z,0.00
2023-02-28T04:30:58.669Z,0.00
2023-02-28T04:31:58.793Z,0.00
2023-02-28T04:32:59.334Z,0.00
2023-02-28T04:33:59.319Z,0.00
2023-02-28T04:34:59.310Z,0.00
2023-02-28T04:35:59.336Z,0.00
2023-02-28T04:37:12.342Z,0.00
2023-02-28T04:38:01.020Z,0.00
2023-02-28T04:38:59.271Z,0.00
2023-02-28T04:39:59.259Z,0.00
2023-02-28T04:40:59.252Z,0.00
2023-02-28T04:41:59.221Z,0.00
2023-02-28T04:42:59.231Z,0.00
2023-02-28T04:43:58.541Z,0.00
2023-02-28T04:44:59.214Z,0.00
2023-02-28T04:45:59.215Z,0.00
2023-02-28T04:46:59.171Z,0.00
2023-02-28T04:47:58.479Z,0.00
2023-02-28T04:48:58.472Z,0.00
2023-02-28T04:49:58.470Z,0.00
2023-02-28T04:50:59.156Z,0.00
2023-02-28T04:51:58.472Z,0.00
2023-02-28T04:52:59.124Z,0.00
2023-02-28T04:53:59.126Z,0.00
2023-02-28T04:54:59.107Z,0.00
2023-02-28T04:55:58.418Z,0.00
2023-02-28T04:56:59.062Z,0.00
2023-02-28T04:57:59.069Z,0.00
2023-02-28T04:58:59.059Z,0.00
2023-02-28T04:59:59.050Z,0.00
2023-02-28T05:00:59.040Z,0.00
2023-02-28T05:01:59.038Z,0.00
2023-02-28T05:03:00.278Z,0.00
2023-02-28T05:03:59.012Z,0.00
2023-02-28T05:04:59.042Z,0.00
2023-02-28T05:05:58.989Z,0.00
2023-02-28T05:06:58.971Z,0.00
2023-02-28T05:07:59.219Z,0.00
2023-02-28T05:08:58.956Z,0.00
2023-02-28T05:09:58.258Z,0.00
2023-02-28T05:10:58.943Z,0.00
2023-02-28T05:11:58.935Z,0.00
2023-02-28T05:12:58.902Z,0.00
2023-02-28T05:13:59.160Z,0.00
2023-02-28T05:14:58.892Z,0.00
2023-02-28T05:15:58.909Z,0.00
2023-02-28T05:16:58.892Z,0.00
2023-02-28T05:17:58.839Z,0.00
2023-02-28T05:18:58.268Z,0.00
2023-02-28T05:20:09.765Z,0.00
2023-02-28T05:21:00.548Z,0.00
2023-02-28T05:21:58.126Z,0.00
2023-02-28T05:22:58.790Z,0.00
2023-02-28T05:23:58.799Z,0.00
2023-02-28T05:24:58.790Z,0.00
2023-02-28T05:25:58.792Z,0.00
2023-02-28T05:26:58.091Z,0.00
2023-02-28T05:27:58.739Z,0.00
2023-02-28T05:28:58.061Z,0.00
2023-02-28T05:29:58.739Z,0.00
2023-02-28T05:30:58.042Z,0.00
2023-02-28T05:31:58.092Z,0.00
2023-02-28T05:32:58.693Z,0.00
2023-02-28T05:33:58.687Z,0.00
2023-02-28T05:34:58.687Z,0.00
2023-02-28T05:35:58.745Z,0.00
2023-02-28T05:36:57.979Z,0.00
2023-02-28T05:37:58.633Z,0.00
2023-02-28T05:38:58.649Z,0.00
2023-02-28T05:39:58.889Z,0.00
2023-02-28T05:40:58.869Z,0.00
2023-02-28T05:41:57.909Z,0.00
2023-02-28T05:42:58.580Z,0.00
2023-02-28T05:43:58.598Z,0.00
2023-02-28T05:44:58.579Z,0.00
2023-02-28T05:45:58.606Z,0.00
2023-02-28T05:46:58.551Z,0.00
2023-02-28T05:47:58.530Z,0.00
2023-02-28T05:48:57.917Z,0.00
2023-02-28T05:49:58.521Z,0.00
2023-02-28T05:50:58.513Z,0.00
2023-02-28T05:51:57.823Z,0.00
2023-02-28T05:52:58.476Z,0.00
2023-02-28T05:53:58.486Z,0.00
2023-02-28T05:54:58.473Z,0.00
2023-02-28T05:55:57.797Z,0.00
2023-02-28T05:56:58.444Z,0.00
2023-02-28T05:57:58.723Z,0.00
2023-02-28T05:58:58.433Z,0.00
2023-02-28T05:59:57.735Z,0.00
2023-02-28T06:00:57.714Z,0.00
2023-02-28T06:01:58.434Z,0.00
2023-02-28T06:02:58.448Z,0.00
2023-02-28T06:03:58.354Z,0.00
2023-02-28T06:04:58.371Z,0.00
2023-02-28T06:05:57.665Z,0.00
2023-02-28T06:06:57.667Z,0.00
2023-02-28T06:07:58.343Z,0.00
2023-02-28T06:08:58.309Z,0.00
2023-02-28T06:09:58.316Z,5.62
2023-02-28T06:10:57.629Z,5.62
2023-02-28T06:11:57.610Z,5.62
2023-02-28T06:12:57.617Z,5.62
2023-02-28T06:13:57.615Z,5.62
2023-02-28T06:14:58.269Z,5.62
2023-02-28T06:15:58.260Z,5.62
2023-02-28T06:16:59.203Z,5.62
2023-02-28T06:17:58.236Z,11.25
2023-02-28T06:18:58.204Z,11.25
2023-02-28T06:19:58.224Z,11.25
2023-02-28T06:20:58.200Z,11.25
2023-02-28T06:21:58.220Z,11.25
2023-02-28T06:22:58.180Z,16.88
2023-02-28T06:23:58.152Z,16.88
2023-02-28T06:24:57.481Z,16.88
2023-02-28T06:25:58.190Z,16.88
2023-02-28T06:26:58.135Z,22.50
2023-02-28T06:27:57.441Z,22.50
2023-02-28T06:28:58.100Z,28.12
2023-02-28T06:29:57.426Z,28.12
2023-02-28T06:30:57.464Z,28.12
2023-02-28T06:31:58.116Z,33.75
2023-02-28T06:32:58.073Z,33.75
2023-02-28T06:33:57.394Z,39.38
2023-02-28T06:34:58.056Z,39.38
2023-02-28T06:35:57.420Z,39.38
2023-02-28T06:36:58.041Z,45.00
2023-02-28T06:37:58.033Z,45.00
2023-02-28T06:38:57.380Z,45.00
2023-02-28T06:39:58.007Z,45.00
2023-02-28T06:40:57.313Z,50.62
2023-02-28T06:41:58.240Z,50.62
2023-02-28T06:42:57.972Z,50.62
2023-02-28T06:43:57.947Z,56.25
2023-02-28T06:44:57.276Z,56.25
2023-02-28T06:45:57.985Z,61.88
2023-02-28T06:46:57.935Z,67.50
2023-02-28T06:47:57.932Z,67.50
2023-02-28T06:48:57.244Z,67.50
2023-02-28T06:49:57.905Z,67.50
2023-02-28T06:50:57.891Z,73.12
2023-02-28T06:51:57.879Z,73.12
2023-02-28T06:52:57.870Z,73.12
2023-02-28T06:53:57.836Z,73.12
2023-02-28T06:54:57.179Z,73.12
2023-02-28T06:55:57.843Z,73.12
2023-02-28T06:56:57.825Z,78.75
2023-02-28T06:57:57.820Z,78.75
2023-02-28T06:58:57.802Z,84.38
2023-02-28T06:59:57.806Z,90.00
2023-02-28T07:00:57.792Z,101.25
2023-02-28T07:01:57.816Z,106.88
2023-02-28T07:02:57.766Z,112.50
2023-02-28T07:03:57.734Z,118.12
2023-02-28T07:04:57.123Z,118.12
2023-02-28T07:05:57.062Z,123.75
2023-02-28T07:06:57.723Z,123.75
2023-02-28T07:07:57.711Z,129.38
2023-02-28T07:08:57.682Z,140.62
2023-02-28T07:09:57.702Z,151.88
2023-02-28T07:10:56.995Z,208.12
2023-02-28T07:11:56.984Z,286.88
2023-02-28T07:12:57.658Z,360.00
2023-02-28T07:13:57.636Z,393.75
2023-02-28T07:14:57.635Z,438.75
2023-02-28T07:15:57.678Z,500.62
2023-02-28T07:16:57.612Z,568.12
2023-02-28T07:17:57.601Z,669.38
2023-02-28T07:18:56.934Z,826.88
2023-02-28T07:19:57.597Z,1057.50
2023-02-28T07:20:57.577Z,1293.75
2023-02-28T07:21:57.570Z,1361.25
2023-02-28T07:22:56.887Z,1260.00
2023-02-28T07:23:56.909Z,1147.50
2023-02-28T07:24:57.534Z,1080.00
2023-02-28T07:25:56.833Z,1029.38
2023-02-28T07:26:57.512Z,967.50
2023-02-28T07:27:57.510Z,922.50
2023-02-28T07:28:57.470Z,933.75
2023-02-28T07:29:57.472Z,939.38
2023-02-28T07:30:57.494Z,916.88
2023-02-28T07:31:57.569Z,900.00
2023-02-28T07:32:57.451Z,905.62
2023-02-28T07:33:57.439Z,888.75
2023-02-28T07:34:56.731Z,838.12
2023-02-28T07:35:56.758Z,815.62
2023-02-28T07:36:56.721Z,787.50
2023-02-28T07:37:57.392Z,770.62
2023-02-28T07:38:57.362Z,759.38
2023-02-28T07:39:57.375Z,753.75
2023-02-28T07:40:56.669Z,736.88
2023-02-28T07:41:57.367Z,708.75
2023-02-28T07:42:57.348Z,736.88
2023-02-28T07:43:57.311Z,753.75
2023-02-28T07:44:57.324Z,742.50
2023-02-28T07:45:57.310Z,748.12
2023-02-28T07:46:56.668Z,736.88
2023-02-28T07:47:57.290Z,736.88
2023-02-28T07:48:57.260Z,748.12
2023-02-28T07:49:57.274Z,748.12
2023-02-28T07:50:57.262Z,765.00
2023-02-28T07:51:57.242Z,742.50
2023-02-28T07:52:56.545Z,731.25
2023-02-28T07:53:56.572Z,731.25
2023-02-28T07:54:57.217Z,731.25
2023-02-28T07:55:57.466Z,736.88
2023-02-28T07:56:57.196Z,753.75
2023-02-28T07:57:57.184Z,748.12
2023-02-28T07:58:57.178Z,759.38
2023-02-28T07:59:57.329Z,798.75
2023-02-28T08:00:57.254Z,787.50
2023-02-28T08:01:57.163Z,781.88
2023-02-28T08:02:57.127Z,793.12
2023-02-28T08:03:57.126Z,770.62
2023-02-28T08:04:57.134Z,742.50
2023-02-28T08:05:57.098Z,736.88
2023-02-28T08:06:56.407Z,736.88
2023-02-28T08:07:57.079Z,736.88
2023-02-28T08:08:57.094Z,725.62
2023-02-28T08:09:57.040Z,708.75
2023-02-28T08:10:57.381Z,663.75
2023-02-28T08:11:57.033Z,624.38
2023-02-28T08:12:57.024Z,601.88
2023-02-28T08:13:57.015Z,568.12
2023-02-28T08:14:56.978Z,540.00
2023-02-28T08:15:56.331Z,523.12
2023-02-28T08:16:56.979Z,523.12
2023-02-28T08:17:56.969Z,517.50
2023-02-28T08:18:56.282Z,517.50
2023-02-28T08:19:56.929Z,517.50
2023-02-28T08:20:56.938Z,511.88
2023-02-28T08:21:56.934Z,517.50
2023-02-28T08:22:56.245Z,517.50
2023-02-28T08:23:56.901Z,523.12
2023-02-28T08:24:56.896Z,534.38
2023-02-28T08:25:56.901Z,540.00
2023-02-28T08:26:56.870Z,540.00
2023-02-28T08:27:56.868Z,551.25
2023-02-28T08:28:57.745Z,556.88
2023-02-28T08:29:56.822Z,568.12
2023-02-28T08:30:56.830Z,573.75
2023-02-28T08:31:56.895Z,585.00
2023-02-28T08:32:56.851Z,596.25
2023-02-28T08:33:57.062Z,613.12
2023-02-28T08:34:56.124Z,630.00
2023-02-28T08:35:56.823Z,641.25
2023-02-28T08:36:56.763Z,646.88
2023-02-28T08:37:56.762Z,652.50
2023-02-28T08:38:56.996Z,663.75
2023-02-28T08:39:56.789Z,663.75
2023-02-28T08:40:56.719Z,663.75
2023-02-28T08:42:07.339Z,652.50
2023-02-28T08:42:57.959Z,641.25
2023-02-28T08:43:56.004Z,641.25
2023-02-28T08:44:56.656Z,641.25
2023-02-28T08:45:56.717Z,641.25
2023-02-28T08:46:56.654Z,646.88
2023-02-28T08:47:56.634Z,652.50
2023-02-28T08:48:56.630Z,663.75
2023-02-28T08:49:56.588Z,686.25
2023-02-28T08:51:06.748Z,725.62
2023-02-28T08:51:58.341Z,765.00
2023-02-28T08:52:56.580Z,832.50
2023-02-28T08:53:55.892Z,894.38
2023-02-28T08:54:55.883Z,956.25
2023-02-28T08:55:56.532Z,1074.38
2023-02-28T08:56:55.861Z,1231.88
2023-02-28T08:57:55.893Z,1282.50
2023-02-28T08:58:56.512Z,1310.62
2023-02-28T08:59:56.500Z,1293.75
2023-02-28T09:00:56.491Z,1299.38
2023-02-28T09:01:56.482Z,1265.62
2023-02-28T09:02:55.795Z,1333.12
2023-02-28T09:04:56.453Z,1378.12
2023-02-28T09:05:56.721Z,1434.38
2023-02-28T09:06:56.432Z,1445.62
2023-02-28T09:07:56.424Z,1389.38
2023-02-28T09:08:56.403Z,1395.00
2023-02-28T09:09:55.795Z,1344.38
2023-02-28T09:10:56.374Z,1327.50
2023-02-28T09:11:56.373Z,1338.75
2023-02-28T09:12:56.363Z,1333.12
2023-02-28T09:13:55.665Z,1350.00
2023-02-28T09:14:56.341Z,1361.25
2023-02-28T09:15:55.664Z,1434.38
2023-02-28T09:16:56.377Z,1507.50
2023-02-28T09:17:56.306Z,1591.88
2023-02-28T09:18:55.616Z,1620.00
2023-02-28T09:19:55.614Z,1620.00
2023-02-28T09:20:56.254Z,1631.25
2023-02-28T09:21:55.611Z,1591.88
2023-02-28T09:22:56.246Z,1636.88
2023-02-28T09:23:55.622Z,1755.00
2023-02-28T09:24:55.637Z,1845.00
2023-02-28T09:25:55.610Z,1873.12
2023-02-28T09:27:04.518Z,1811.25
2023-02-28T09:27:56.524Z,1783.12
2023-02-28T09:28:56.244Z,1749.38
2023-02-28T09:29:56.171Z,1805.62
2023-02-28T09:30:55.553Z,1912.50
2023-02-28T09:31:56.187Z,1878.75
2023-02-28T09:32:56.151Z,1833.75
2023-02-28T09:33:56.198Z,1850.62
2023-02-28T09:34:55.461Z,1845.00
2023-02-28T09:35:56.154Z,1873.12
2023-02-28T09:36:55.424Z,1861.88
2023-02-28T09:37:55.436Z,1867.50
2023-02-28T09:38:55.424Z,1755.00
2023-02-28T09:39:56.074Z,1636.88
2023-02-28T09:40:55.395Z,1091.25
2023-02-28T09:41:56.046Z,590.62
2023-02-28T09:42:55.343Z,461.25
2023-02-28T09:43:55.365Z,399.38
2023-02-28T09:44:55.356Z,360.00
2023-02-28T09:45:55.343Z,343.12
2023-02-28T09:46:55.998Z,326.25
2023-02-28T09:47:55.311Z,315.00
2023-02-28T09:48:55.311Z,303.75
2023-02-28T09:49:55.304Z,303.75
2023-02-28T09:50:55.934Z,298.12
2023-02-28T09:51:55.972Z,292.50
2023-02-28T09:52:55.926Z,281.25
2023-02-28T09:54:01.316Z,275.62
2023-02-28T09:54:56.224Z,270.00
2023-02-28T09:55:55.244Z,264.38
2023-02-28T09:56:55.900Z,258.75
2023-02-28T09:57:55.178Z,253.12
2023-02-28T09:58:55.929Z,247.50
2023-02-28T09:59:55.870Z,247.50
2023-02-28T10:00:55.848Z,241.88
2023-02-28T10:01:55.901Z,241.88
2023-02-28T10:02:55.839Z,241.88
2023-02-28T10:03:57.070Z,241.88
2023-02-28T10:04:55.857Z,236.25
2023-02-28T10:05:55.113Z,236.25
2023-02-28T10:06:55.767Z,236.25
2023-02-28T10:07:55.773Z,236.25
2023-02-28T10:08:57.017Z,230.62
2023-02-28T10:09:56.083Z,230.62
2023-02-28T10:10:57.034Z,225.00
2023-02-28T10:11:56.973Z,225.00
2023-02-28T10:12:55.057Z,225.00
2023-02-28T10:13:55.042Z,219.38
2023-02-28T10:14:55.697Z,219.38
2023-02-28T10:15:55.713Z,219.38
2023-02-28T10:16:55.651Z,213.75
2023-02-28T10:18:06.191Z,213.75
2023-02-28T10:18:56.653Z,208.12
2023-02-28T10:19:55.639Z,213.75
2023-02-28T10:20:55.633Z,202.50
2023-02-28T10:21:54.941Z,202.50
2023-02-28T10:22:54.903Z,196.88
2023-02-28T10:23:54.921Z,196.88
2023-02-28T10:24:54.941Z,191.25
2023-02-28T10:25:54.902Z,191.25
2023-02-28T10:26:54.902Z,185.62
2023-02-28T10:27:55.554Z,191.25
2023-02-28T10:28:55.543Z,180.00
2023-02-28T10:29:55.535Z,180.00
2023-02-28T10:30:55.540Z,180.00
2023-02-28T10:31:55.523Z,180.00
2023-02-28T10:32:55.546Z,180.00
2023-02-28T10:33:54.805Z,180.00
2023-02-28T10:34:54.803Z,174.38
2023-02-28T10:35:54.824Z,174.38
2023-02-28T10:36:54.890Z,174.38
2023-02-28T10:37:55.447Z,174.38
2023-02-28T10:38:55.436Z,168.75
2023-02-28T10:39:54.735Z,168.75
2023-02-28T10:40:54.757Z,168.75
2023-02-28T10:41:54.804Z,168.75
2023-02-28T10:42:54.715Z,168.75
2023-02-28T10:43:55.389Z,163.12
2023-02-28T10:44:55.374Z,163.12
2023-02-28T10:45:55.359Z,163.12
2023-02-28T10:46:55.328Z,163.12
2023-02-28T10:47:55.118Z,163.12
2023-02-28T10:48:55.329Z,157.50
2023-02-28T10:49:54.667Z,157.50
2023-02-28T10:50:55.310Z,157.50
2023-02-28T10:51:54.639Z,157.50
2023-02-28T10:52:54.639Z,151.88
2023-02-28T10:54:02.618Z,151.88
2023-02-28T10:54:56.268Z,151.88
2023-02-28T10:55:55.251Z,151.88
2023-02-28T10:56:55.228Z,151.88
2023-02-28T10:57:54.540Z,151.88
2023-02-28T10:58:54.551Z,146.25
2023-02-28T10:59:55.213Z,146.25
2023-02-28T11:00:55.244Z,146.25
2023-02-28T11:01:55.188Z,146.25
2023-02-28T11:02:55.191Z,146.25
2023-02-28T11:03:55.173Z,146.25
2023-02-28T11:04:55.163Z,146.25
2023-02-28T11:05:55.149Z,140.62
2023-02-28T11:06:55.118Z,140.62
2023-02-28T11:07:55.155Z,140.62
2023-02-28T11:08:55.120Z,140.62
2023-02-28T11:09:54.427Z,140.62
2023-02-28T11:10:55.092Z,135.00
2023-02-28T11:11:54.420Z,135.00
2023-02-28T11:12:54.429Z,135.00
2023-02-28T11:13:55.060Z,135.00
2023-02-28T11:14:55.049Z,135.00
2023-02-28T11:15:54.420Z,135.00
2023-02-28T11:16:54.348Z,135.00
2023-02-28T11:17:54.358Z,135.00
2023-02-28T11:18:55.010Z,135.00
2023-02-28T11:19:54.373Z,135.00
2023-02-28T11:20:55.002Z,135.00
2023-02-28T11:21:54.288Z,135.00
2023-02-28T11:22:54.960Z,135.00
2023-02-28T11:23:54.315Z,135.00
2023-02-28T11:24:54.939Z,135.00
2023-02-28T11:25:54.916Z,135.00
2023-02-28T11:26:54.925Z,135.00
2023-02-28T11:27:54.952Z,135.00
2023-02-28T11:28:54.224Z,135.00
2023-02-28T11:29:54.905Z,135.00
2023-02-28T11:30:54.939Z,135.00
2023-02-28T11:31:54.874Z,135.00
2023-02-28T11:32:54.933Z,135.00
2023-02-28T11:33:54.848Z,135.00
2023-02-28T11:34:54.149Z,135.00
2023-02-28T11:35:54.859Z,135.00
2023-02-28T11:36:54.802Z,135.00
2023-02-28T11:37:54.800Z,135.00
2023-02-28T11:38:54.105Z,135.00
2023-02-28T11:39:54.789Z,135.00
2023-02-28T11:40:54.764Z,135.00
2023-02-28T11:41:54.125Z,135.00
2023-02-28T11:42:54.741Z,135.00
2023-02-28T11:43:54.067Z,135.00
2023-02-28T11:44:54.028Z,135.00
2023-02-28T11:45:54.014Z,135.00
2023-02-28T11:46:54.156Z,129.38
2023-02-28T11:47:54.688Z,129.38
2023-02-28T11:48:54.671Z,129.38
2023-02-28T11:49:53.972Z,129.38
2023-02-28T11:50:54.651Z,129.38
2023-02-28T11:51:54.652Z,129.38
2023-02-28T11:52:54.647Z,129.38
2023-02-28T11:53:54.624Z,129.38
2023-02-28T11:54:54.613Z,129.38
2023-02-28T11:55:54.615Z,129.38
2023-02-28T11:56:53.905Z,129.38
2023-02-28T11:57:54.586Z,129.38
2023-02-28T11:58:54.838Z,129.38
2023-02-28T11:59:54.568Z,129.38
2023-02-28T12:00:54.584Z,129.38
2023-02-28T12:01:53.865Z,129.38
2023-02-28T12:02:54.666Z,129.38
2023-02-28T12:03:53.836Z,129.38
2023-02-28T12:04:53.847Z,129.38
2023-02-28T12:05:54.508Z,129.38
2023-02-28T12:06:54.547Z,129.38
2023-02-28T12:07:53.813Z,129.38
2023-02-28T12:08:54.495Z,129.38
2023-02-28T12:09:54.465Z,129.38
2023-02-28T12:10:53.764Z,129.38
2023-02-28T12:11:54.734Z,129.38
2023-02-28T12:12:54.414Z,129.38
2023-02-28T12:13:54.426Z,129.38
2023-02-28T12:14:54.406Z,129.38
2023-02-28T12:15:53.742Z,129.38
2023-02-28T12:16:54.658Z,129.38
2023-02-28T12:17:53.721Z,129.38
2023-02-28T12:18:54.687Z,129.38
2023-02-28T12:19:54.628Z,129.38
2023-02-28T12:20:54.355Z,123.75
2023-02-28T12:21:54.352Z,123.75
2023-02-28T12:22:54.318Z,123.75
2023-02-28T12:23:54.311Z,123.75
2023-02-28T12:24:54.584Z,123.75
2023-02-28T12:25:54.293Z,123.75
2023-02-28T12:26:54.281Z,123.75
2023-02-28T12:27:54.277Z,123.75
2023-02-28T12:28:54.265Z,123.75
2023-02-28T12:29:54.506Z,123.75
2023-02-28T12:30:54.243Z,123.75
2023-02-28T12:31:54.541Z,123.75
2023-02-28T12:32:54.521Z,123.75
2023-02-28T12:33:54.485Z,123.75
2023-02-28T12:34:54.188Z,123.75
2023-02-28T12:35:54.197Z,123.75
2023-02-28T12:36:54.172Z,123.75
2023-02-28T12:37:54.147Z,123.75
2023-02-28T12:38:54.147Z,123.75
2023-02-28T12:39:53.448Z,123.75
2023-02-28T12:40:55.398Z,123.75
2023-02-28T12:41:54.125Z,123.75
2023-02-28T12:42:54.879Z,123.75
2023-02-28T12:43:54.089Z,123.75
2023-02-28T12:44:54.088Z,123.75
2023-02-28T12:45:54.161Z,118.12
2023-02-28T12:46:54.205Z,118.12
2023-02-28T12:47:54.040Z,118.12
2023-02-28T12:48:53.369Z,118.12
2023-02-28T12:49:53.349Z,118.12
2023-02-28T12:50:54.024Z,118.12
2023-02-28T12:51:54.014Z,118.12